sensor_id;sensor_type;location;lat;lon;timestamp;P1;durP1;ratioP1;P2;durP2;ratioP2
69369;SDS011;56530;42.640;23.372;2023-04-15T00:01:24;2.60;;;1.80;;
69369;SDS011;56530;42.640;23.372;2023-04-15T00:03:53;2.70;;;2.05;;
69369;SDS011;56530;42.640;23.372;2023-04-15T00:06:19;5.55;;;2.70;;
69369;SDS011;56530;42.640;23.372;2023-04-15T00:08:45;7.53;;;3.90;;
69369;SDS011;56530;42.640;23.372;2023-04-15T00:11:12;10.40;;;6.30;;
69369;SDS011;56530;42.640;23.372;2023-04-15T00:13:37;19.52;;;10.20;;
69369;SDS011;56530;42.640;23.372;2023-04-15T00:16:04;19.55;;;9.18;;
69369;SDS011;56530;42.640;23.372;2023-04-15T00:18:30;13.32;;;7.72;;
69369;SDS011;56530;42.640;23.372;2023-04-15T00:20:56;13.35;;;8.00;;
69369;SDS011;56530;42.640;23.372;2023-04-15T00:23:21;6.28;;;3.72;;
69369;SDS011;56530;42.640;23.372;2023-04-15T00:25:47;4.32;;;3.13;;
69369;SDS011;56530;42.640;23.372;2023-04-15T00:28:13;3.42;;;2.90;;
69369;SDS011;56530;42.640;23.372;2023-04-15T00:30:38;4.50;;;3.00;;
69369;SDS011;56530;42.640;23.372;2023-04-15T00:33:03;4.40;;;2.95;;
69369;SDS011;56530;42.640;23.372;2023-04-15T00:35:29;6.90;;;3.63;;
69369;SDS011;56530;42.640;23.372;2023-04-15T00:37:58;4.55;;;2.83;;
69369;SDS011;56530;42.640;23.372;2023-04-15T00:40:23;5.38;;;3.40;;
69369;SDS011;56530;42.640;23.372;2023-04-15T00:42:50;7.40;;;3.80;;
69369;SDS011;56530;42.640;23.372;2023-04-15T00:45:16;5.72;;;4.05;;
69369;SDS011;56530;42.640;23.372;2023-04-15T00:47:42;9.25;;;3.88;;
69369;SDS011;56530;42.640;23.372;2023-04-15T00:50:09;9.45;;;4.63;;
69369;SDS011;56530;42.640;23.372;2023-04-15T00:52:36;5.40;;;4.05;;
69369;SDS011;56530;42.640;23.372;2023-04-15T00:55:03;6.45;;;4.28;;
69369;SDS011;56530;42.640;23.372;2023-04-15T00:57:29;10.00;;;4.05;;
69369;SDS011;56530;42.640;23.372;2023-04-15T00:59:55;7.93;;;4.22;;
69369;SDS011;56530;42.640;23.372;2023-04-15T01:02:21;5.00;;;3.95;;
69369;SDS011;56530;42.640;23.372;2023-04-15T01:04:46;10.75;;;4.82;;
69369;SDS011;56530;42.640;23.372;2023-04-15T01:07:12;6.75;;;3.55;;
69369;SDS011;56530;42.640;23.372;2023-04-15T01:09:37;4.63;;;3.58;;
69369;SDS011;56530;42.640;23.372;2023-04-15T01:12:03;4.88;;;3.95;;
69369;SDS011;56530;42.640;23.372;2023-04-15T01:14:29;5.07;;;3.30;;
69369;SDS011;56530;42.640;23.372;2023-04-15T01:16:54;3.50;;;2.60;;
69369;SDS011;56530;42.640;23.372;2023-04-15T01:19:20;3.80;;;2.78;;
69369;SDS011;56530;42.640;23.372;2023-04-15T01:21:46;3.72;;;3.08;;
69369;SDS011;56530;42.640;23.372;2023-04-15T01:24:11;4.00;;;3.03;;
69369;SDS011;56530;42.640;23.372;2023-04-15T01:26:37;3.40;;;2.63;;
69369;SDS011;56530;42.640;23.372;2023-04-15T01:29:03;8.15;;;2.78;;
69369;SDS011;56530;42.640;23.372;2023-04-15T01:31:29;3.95;;;2.45;;
69369;SDS011;56530;42.640;23.372;2023-04-15T01:33:54;2.50;;;2.30;;
69369;SDS011;56530;42.640;23.372;2023-04-15T01:36:20;3.95;;;2.67;;
69369;SDS011;56530;42.640;23.372;2023-04-15T01:38:45;9.80;;;3.22;;
69369;SDS011;56530;42.640;23.372;2023-04-15T01:41:12;3.38;;;2.85;;
69369;SDS011;56530;42.640;23.372;2023-04-15T01:43:38;9.00;;;3.35;;
69369;SDS011;56530;42.640;23.372;2023-04-15T01:46:03;5.63;;;2.70;;
69369;SDS011;56530;42.640;23.372;2023-04-15T01:48:29;2.47;;;2.28;;
69369;SDS011;56530;42.640;23.372;2023-04-15T01:50:54;3.25;;;2.25;;
69369;SDS011;56530;42.640;23.372;2023-04-15T01:53:23;2.60;;;2.40;;
69369;SDS011;56530;42.640;23.372;2023-04-15T01:55:50;3.58;;;2.85;;
69369;SDS011;56530;42.640;23.372;2023-04-15T01:58:16;6.40;;;2.55;;
69369;SDS011;56530;42.640;23.372;2023-04-15T02:00:42;3.08;;;2.47;;
69369;SDS011;56530;42.640;23.372;2023-04-15T02:03:07;4.13;;;1.92;;
69369;SDS011;56530;42.640;23.372;2023-04-15T02:05:33;3.35;;;2.33;;
69369;SDS011;56530;42.640;23.372;2023-04-15T02:07:59;3.00;;;2.50;;
69369;SDS011;56530;42.640;23.372;2023-04-15T02:10:25;3.47;;;2.15;;
69369;SDS011;56530;42.640;23.372;2023-04-15T02:12:51;4.00;;;2.58;;
69369;SDS011;56530;42.640;23.372;2023-04-15T02:15:16;5.78;;;2.78;;
69369;SDS011;56530;42.640;23.372;2023-04-15T02:17:42;3.55;;;2.50;;
69369;SDS011;56530;42.640;23.372;2023-04-15T02:20:10;2.90;;;2.45;;
69369;SDS011;56530;42.640;23.372;2023-04-15T02:22:35;3.80;;;2.85;;
69369;SDS011;56530;42.640;23.372;2023-04-15T02:25:01;5.32;;;2.88;;
69369;SDS011;56530;42.640;23.372;2023-04-15T02:27:27;2.60;;;2.25;;
69369;SDS011;56530;42.640;23.372;2023-04-15T02:29:53;3.55;;;2.30;;
69369;SDS011;56530;42.640;23.372;2023-04-15T02:32:18;3.75;;;2.40;;
69369;SDS011;56530;42.640;23.372;2023-04-15T02:34:44;5.53;;;3.05;;
69369;SDS011;56530;42.640;23.372;2023-04-15T02:37:10;4.25;;;2.65;;
69369;SDS011;56530;42.640;23.372;2023-04-15T02:39:36;6.03;;;2.42;;
69369;SDS011;56530;42.640;23.372;2023-04-15T02:42:02;4.13;;;2.80;;
69369;SDS011;56530;42.640;23.372;2023-04-15T02:44:29;3.00;;;2.65;;
69369;SDS011;56530;42.640;23.372;2023-04-15T02:46:55;4.57;;;2.88;;
69369;SDS011;56530;42.640;23.372;2023-04-15T02:49:20;3.75;;;2.50;;
69369;SDS011;56530;42.640;23.372;2023-04-15T02:51:47;4.88;;;2.90;;
69369;SDS011;56530;42.640;23.372;2023-04-15T02:54:14;3.03;;;2.55;;
69369;SDS011;56530;42.640;23.372;2023-04-15T02:56:40;5.63;;;2.50;;
69369;SDS011;56530;42.640;23.372;2023-04-15T02:59:06;3.40;;;2.60;;
69369;SDS011;56530;42.640;23.372;2023-04-15T03:01:31;4.13;;;2.53;;
69369;SDS011;56530;42.640;23.372;2023-04-15T03:03:57;4.68;;;3.08;;
69369;SDS011;56530;42.640;23.372;2023-04-15T03:06:22;5.20;;;3.35;;
69369;SDS011;56530;42.640;23.372;2023-04-15T03:08:48;4.95;;;3.00;;
69369;SDS011;56530;42.640;23.372;2023-04-15T03:11:14;3.97;;;2.40;;
69369;SDS011;56530;42.640;23.372;2023-04-15T03:13:41;3.30;;;2.50;;
69369;SDS011;56530;42.640;23.372;2023-04-15T03:16:07;6.32;;;2.60;;
69369;SDS011;56530;42.640;23.372;2023-04-15T03:18:33;8.48;;;3.00;;
69369;SDS011;56530;42.640;23.372;2023-04-15T03:20:58;2.75;;;1.92;;
69369;SDS011;56530;42.640;23.372;2023-04-15T03:23:24;2.95;;;2.63;;
69369;SDS011;56530;42.640;23.372;2023-04-15T03:25:49;2.97;;;2.67;;
69369;SDS011;56530;42.640;23.372;2023-04-15T03:28:15;3.42;;;2.50;;
69369;SDS011;56530;42.640;23.372;2023-04-15T03:30:40;3.58;;;2.88;;
69369;SDS011;56530;42.640;23.372;2023-04-15T03:33:06;4.97;;;3.40;;
69369;SDS011;56530;42.640;23.372;2023-04-15T03:35:32;2.95;;;2.50;;
69369;SDS011;56530;42.640;23.372;2023-04-15T03:37:58;5.25;;;2.97;;
69369;SDS011;56530;42.640;23.372;2023-04-15T03:40:23;5.68;;;3.13;;
69369;SDS011;56530;42.640;23.372;2023-04-15T03:42:49;4.03;;;2.45;;
69369;SDS011;56530;42.640;23.372;2023-04-15T03:45:14;8.23;;;2.63;;
69369;SDS011;56530;42.640;23.372;2023-04-15T03:47:40;2.60;;;2.40;;
69369;SDS011;56530;42.640;23.372;2023-04-15T03:50:06;4.25;;;2.97;;
69369;SDS011;56530;42.640;23.372;2023-04-15T03:52:32;5.80;;;2.58;;
69369;SDS011;56530;42.640;23.372;2023-04-15T03:54:57;7.30;;;3.17;;
69369;SDS011;56530;42.640;23.372;2023-04-15T03:57:23;5.03;;;3.67;;
69369;SDS011;56530;42.640;23.372;2023-04-15T03:59:48;8.77;;;3.40;;
69369;SDS011;56530;42.640;23.372;2023-04-15T04:02:13;3.20;;;2.85;;
69369;SDS011;56530;42.640;23.372;2023-04-15T04:04:39;3.33;;;2.75;;
69369;SDS011;56530;42.640;23.372;2023-04-15T04:07:05;3.63;;;2.55;;
69369;SDS011;56530;42.640;23.372;2023-04-15T04:09:30;2.88;;;2.60;;
69369;SDS011;56530;42.640;23.372;2023-04-15T04:11:56;3.00;;;2.70;;
69369;SDS011;56530;42.640;23.372;2023-04-15T04:14:21;4.43;;;3.03;;
69369;SDS011;56530;42.640;23.372;2023-04-15T04:16:53;4.15;;;3.17;;
69369;SDS011;56530;42.640;23.372;2023-04-15T04:19:18;6.75;;;3.30;;
69369;SDS011;56530;42.640;23.372;2023-04-15T04:21:44;3.35;;;2.90;;
69369;SDS011;56530;42.640;23.372;2023-04-15T04:24:10;6.15;;;3.88;;
69369;SDS011;56530;42.640;23.372;2023-04-15T04:26:36;4.63;;;3.42;;
69369;SDS011;56530;42.640;23.372;2023-04-15T04:29:01;5.10;;;4.13;;
69369;SDS011;56530;42.640;23.372;2023-04-15T04:31:27;6.03;;;4.30;;
69369;SDS011;56530;42.640;23.372;2023-04-15T04:33:52;5.53;;;4.03;;
69369;SDS011;56530;42.640;23.372;2023-04-15T04:36:18;6.80;;;4.88;;
69369;SDS011;56530;42.640;23.372;2023-04-15T04:38:43;5.68;;;4.40;;
69369;SDS011;56530;42.640;23.372;2023-04-15T04:41:08;8.70;;;5.13;;
69369;SDS011;56530;42.640;23.372;2023-04-15T04:43:34;8.23;;;5.20;;
69369;SDS011;56530;42.640;23.372;2023-04-15T04:45:59;8.27;;;5.28;;
69369;SDS011;56530;42.640;23.372;2023-04-15T04:48:25;7.20;;;4.70;;
69369;SDS011;56530;42.640;23.372;2023-04-15T04:50:51;6.90;;;5.60;;
69369;SDS011;56530;42.640;23.372;2023-04-15T04:53:16;5.47;;;4.82;;
69369;SDS011;56530;42.640;23.372;2023-04-15T04:55:42;9.52;;;5.72;;
69369;SDS011;56530;42.640;23.372;2023-04-15T04:58:07;6.38;;;5.35;;
69369;SDS011;56530;42.640;23.372;2023-04-15T05:00:33;7.90;;;5.13;;
69369;SDS011;56530;42.640;23.372;2023-04-15T05:02:58;8.98;;;5.75;;
69369;SDS011;56530;42.640;23.372;2023-04-15T05:05:23;6.13;;;4.78;;
69369;SDS011;56530;42.640;23.372;2023-04-15T05:07:49;8.13;;;5.78;;
69369;SDS011;56530;42.640;23.372;2023-04-15T05:10:15;6.78;;;5.82;;
69369;SDS011;56530;42.640;23.372;2023-04-15T05:12:42;8.05;;;5.47;;
69369;SDS011;56530;42.640;23.372;2023-04-15T05:15:07;7.80;;;5.45;;
69369;SDS011;56530;42.640;23.372;2023-04-15T05:17:33;6.13;;;5.47;;
69369;SDS011;56530;42.640;23.372;2023-04-15T05:19:59;7.13;;;5.88;;
69369;SDS011;56530;42.640;23.372;2023-04-15T05:22:25;10.07;;;5.13;;
69369;SDS011;56530;42.640;23.372;2023-04-15T05:24:51;17.08;;;6.15;;
69369;SDS011;56530;42.640;23.372;2023-04-15T05:27:16;6.38;;;5.72;;
69369;SDS011;56530;42.640;23.372;2023-04-15T05:29:43;6.50;;;5.25;;
69369;SDS011;56530;42.640;23.372;2023-04-15T05:32:08;9.18;;;4.72;;
69369;SDS011;56530;42.640;23.372;2023-04-15T05:34:34;4.97;;;4.47;;
69369;SDS011;56530;42.640;23.372;2023-04-15T05:36:59;6.85;;;3.80;;
69369;SDS011;56530;42.640;23.372;2023-04-15T05:39:25;8.05;;;4.22;;
69369;SDS011;56530;42.640;23.372;2023-04-15T05:41:50;6.55;;;4.20;;
69369;SDS011;56530;42.640;23.372;2023-04-15T05:44:16;6.95;;;4.30;;
69369;SDS011;56530;42.640;23.372;2023-04-15T05:46:41;4.93;;;4.43;;
69369;SDS011;56530;42.640;23.372;2023-04-15T05:49:07;6.20;;;4.65;;
69369;SDS011;56530;42.640;23.372;2023-04-15T05:51:32;8.27;;;4.53;;
69369;SDS011;56530;42.640;23.372;2023-04-15T05:53:58;9.25;;;5.22;;
69369;SDS011;56530;42.640;23.372;2023-04-15T05:56:23;9.73;;;5.25;;
69369;SDS011;56530;42.640;23.372;2023-04-15T05:58:51;10.80;;;4.63;;
69369;SDS011;56530;42.640;23.372;2023-04-15T06:01:16;7.20;;;4.53;;
69369;SDS011;56530;42.640;23.372;2023-04-15T06:03:41;4.85;;;3.10;;
69369;SDS011;56530;42.640;23.372;2023-04-15T06:06:07;5.95;;;3.20;;
69369;SDS011;56530;42.640;23.372;2023-04-15T06:08:33;4.65;;;3.95;;
69369;SDS011;56530;42.640;23.372;2023-04-15T06:10:59;10.98;;;4.00;;
69369;SDS011;56530;42.640;23.372;2023-04-15T06:13:25;6.93;;;3.77;;
69369;SDS011;56530;42.640;23.372;2023-04-15T06:15:51;4.65;;;3.38;;
69369;SDS011;56530;42.640;23.372;2023-04-15T06:18:17;6.88;;;4.43;;
69369;SDS011;56530;42.640;23.372;2023-04-15T06:20:43;4.95;;;3.47;;
69369;SDS011;56530;42.640;23.372;2023-04-15T06:23:08;11.13;;;4.50;;
69369;SDS011;56530;42.640;23.372;2023-04-15T06:25:33;6.87;;;3.87;;
69369;SDS011;56530;42.640;23.372;2023-04-15T06:27:59;5.45;;;3.40;;
69369;SDS011;56530;42.640;23.372;2023-04-15T06:30:24;8.40;;;3.47;;
69369;SDS011;56530;42.640;23.372;2023-04-15T06:32:50;7.15;;;3.97;;
69369;SDS011;56530;42.640;23.372;2023-04-15T06:35:15;6.53;;;3.50;;
69369;SDS011;56530;42.640;23.372;2023-04-15T06:37:41;4.45;;;3.65;;
69369;SDS011;56530;42.640;23.372;2023-04-15T06:40:06;4.00;;;2.85;;
69369;SDS011;56530;42.640;23.372;2023-04-15T06:42:34;4.18;;;3.05;;
69369;SDS011;56530;42.640;23.372;2023-04-15T06:45:01;8.68;;;3.75;;
69369;SDS011;56530;42.640;23.372;2023-04-15T06:47:26;8.05;;;4.35;;
69369;SDS011;56530;42.640;23.372;2023-04-15T06:49:52;6.63;;;3.42;;
69369;SDS011;56530;42.640;23.372;2023-04-15T06:52:17;9.10;;;3.35;;
69369;SDS011;56530;42.640;23.372;2023-04-15T06:54:43;6.65;;;3.25;;
69369;SDS011;56530;42.640;23.372;2023-04-15T06:57:08;8.88;;;3.80;;
69369;SDS011;56530;42.640;23.372;2023-04-15T06:59:34;8.15;;;3.90;;
69369;SDS011;56530;42.640;23.372;2023-04-15T07:02:00;6.68;;;3.22;;
69369;SDS011;56530;42.640;23.372;2023-04-15T07:04:25;9.50;;;3.70;;
69369;SDS011;56530;42.640;23.372;2023-04-15T07:06:51;7.07;;;3.30;;
69369;SDS011;56530;42.640;23.372;2023-04-15T07:09:18;5.00;;;3.80;;
69369;SDS011;56530;42.640;23.372;2023-04-15T07:11:43;5.38;;;3.40;;
69369;SDS011;56530;42.640;23.372;2023-04-15T07:14:09;5.13;;;3.28;;
69369;SDS011;56530;42.640;23.372;2023-04-15T07:16:34;3.55;;;2.80;;
69369;SDS011;56530;42.640;23.372;2023-04-15T07:19:00;3.90;;;2.90;;
69369;SDS011;56530;42.640;23.372;2023-04-15T07:21:26;3.88;;;2.70;;
69369;SDS011;56530;42.640;23.372;2023-04-15T07:23:51;3.80;;;2.90;;
69369;SDS011;56530;42.640;23.372;2023-04-15T07:26:17;3.28;;;2.88;;
69369;SDS011;56530;42.640;23.372;2023-04-15T07:28:42;4.35;;;2.45;;
69369;SDS011;56530;42.640;23.372;2023-04-15T07:31:08;5.72;;;2.55;;
69369;SDS011;56530;42.640;23.372;2023-04-15T07:33:33;3.85;;;2.25;;
69369;SDS011;56530;42.640;23.372;2023-04-15T07:35:59;11.10;;;4.03;;
69369;SDS011;56530;42.640;23.372;2023-04-15T07:38:25;5.90;;;2.60;;
69369;SDS011;56530;42.640;23.372;2023-04-15T07:40:50;5.15;;;2.90;;
69369;SDS011;56530;42.640;23.372;2023-04-15T07:43:15;5.22;;;3.35;;
69369;SDS011;56530;42.640;23.372;2023-04-15T07:45:41;5.38;;;3.40;;
69369;SDS011;56530;42.640;23.372;2023-04-15T07:48:06;4.45;;;3.00;;
69369;SDS011;56530;42.640;23.372;2023-04-15T07:50:32;3.55;;;3.10;;
69369;SDS011;56530;42.640;23.372;2023-04-15T07:52:58;7.63;;;3.67;;
69369;SDS011;56530;42.640;23.372;2023-04-15T07:55:23;7.22;;;3.30;;
69369;SDS011;56530;42.640;23.372;2023-04-15T07:57:49;6.45;;;2.88;;
69369;SDS011;56530;42.640;23.372;2023-04-15T08:00:15;4.30;;;2.60;;
69369;SDS011;56530;42.640;23.372;2023-04-15T08:02:40;8.18;;;2.97;;
69369;SDS011;56530;42.640;23.372;2023-04-15T08:05:07;9.10;;;3.05;;
69369;SDS011;56530;42.640;23.372;2023-04-15T08:07:33;4.85;;;3.28;;
69369;SDS011;56530;42.640;23.372;2023-04-15T08:09:59;3.88;;;2.58;;
69369;SDS011;56530;42.640;23.372;2023-04-15T08:12:24;7.65;;;2.90;;
69369;SDS011;56530;42.640;23.372;2023-04-15T08:14:50;4.15;;;2.55;;
69369;SDS011;56530;42.640;23.372;2023-04-15T08:17:16;7.47;;;2.60;;
69369;SDS011;56530;42.640;23.372;2023-04-15T08:19:41;6.97;;;2.75;;
69369;SDS011;56530;42.640;23.372;2023-04-15T08:22:07;4.82;;;2.85;;
69369;SDS011;56530;42.640;23.372;2023-04-15T08:24:32;7.90;;;3.15;;
69369;SDS011;56530;42.640;23.372;2023-04-15T08:26:58;9.98;;;3.22;;
69369;SDS011;56530;42.640;23.372;2023-04-15T08:29:24;3.20;;;2.80;;
69369;SDS011;56530;42.640;23.372;2023-04-15T08:31:49;7.78;;;2.88;;
69369;SDS011;56530;42.640;23.372;2023-04-15T08:34:15;6.75;;;2.83;;
69369;SDS011;56530;42.640;23.372;2023-04-15T08:36:41;4.50;;;2.63;;
69369;SDS011;56530;42.640;23.372;2023-04-15T08:39:06;5.15;;;2.50;;
69369;SDS011;56530;42.640;23.372;2023-04-15T08:41:45;3.38;;;2.30;;
69369;SDS011;56530;42.640;23.372;2023-04-15T08:44:12;3.75;;;1.92;;
69369;SDS011;56530;42.640;23.372;2023-04-15T08:46:38;2.80;;;2.13;;
69369;SDS011;56530;42.640;23.372;2023-04-15T08:49:07;8.68;;;2.65;;
69369;SDS011;56530;42.640;23.372;2023-04-15T08:51:34;6.05;;;2.20;;
69369;SDS011;56530;42.640;23.372;2023-04-15T08:54:00;6.72;;;2.50;;
69369;SDS011;56530;42.640;23.372;2023-04-15T08:56:26;3.22;;;2.53;;
69369;SDS011;56530;42.640;23.372;2023-04-15T08:58:52;4.72;;;2.50;;
69369;SDS011;56530;42.640;23.372;2023-04-15T09:01:17;4.28;;;2.42;;
69369;SDS011;56530;42.640;23.372;2023-04-15T09:03:43;3.10;;;2.17;;
69369;SDS011;56530;42.640;23.372;2023-04-15T09:06:10;2.00;;;1.73;;
69369;SDS011;56530;42.640;23.372;2023-04-15T09:08:35;2.40;;;2.20;;
69369;SDS011;56530;42.640;23.372;2023-04-15T09:11:04;2.22;;;2.03;;
69369;SDS011;56530;42.640;23.372;2023-04-15T09:13:30;8.88;;;2.17;;
69369;SDS011;56530;42.640;23.372;2023-04-15T09:15:55;3.08;;;1.85;;
69369;SDS011;56530;42.640;23.372;2023-04-15T09:20:55;1.65;;;1.38;;
69369;SDS011;56530;42.640;23.372;2023-04-15T09:23:21;3.97;;;2.00;;
69369;SDS011;56530;42.640;23.372;2023-04-15T09:25:46;3.50;;;1.52;;
69369;SDS011;56530;42.640;23.372;2023-04-15T09:28:13;3.70;;;1.27;;
69369;SDS011;56530;42.640;23.372;2023-04-15T09:30:38;3.72;;;1.98;;
69369;SDS011;56530;42.640;23.372;2023-04-15T09:33:10;1.40;;;1.30;;
69369;SDS011;56530;42.640;23.372;2023-04-15T09:35:38;2.00;;;1.67;;
69369;SDS011;56530;42.640;23.372;2023-04-15T09:38:08;2.67;;;1.48;;
69369;SDS011;56530;42.640;23.372;2023-04-15T09:40:38;4.10;;;1.27;;
69369;SDS011;56530;42.640;23.372;2023-04-15T09:43:06;4.25;;;1.55;;
69369;SDS011;56530;42.640;23.372;2023-04-15T09:45:33;2.30;;;1.45;;
69369;SDS011;56530;42.640;23.372;2023-04-15T09:48:00;3.13;;;2.15;;
69369;SDS011;56530;42.640;23.372;2023-04-15T09:50:41;3.60;;;1.63;;
69369;SDS011;56530;42.640;23.372;2023-04-15T09:53:10;6.15;;;2.05;;
69369;SDS011;56530;42.640;23.372;2023-04-15T09:55:38;2.80;;;1.60;;
69369;SDS011;56530;42.640;23.372;2023-04-15T09:58:19;1.77;;;1.45;;
69369;SDS011;56530;42.640;23.372;2023-04-15T10:00:46;2.70;;;1.27;;
69369;SDS011;56530;42.640;23.372;2023-04-15T10:03:13;1.95;;;1.25;;
69369;SDS011;56530;42.640;23.372;2023-04-15T10:05:50;2.58;;;1.65;;
69369;SDS011;56530;42.640;23.372;2023-04-15T10:08:18;2.33;;;1.20;;
69369;SDS011;56530;42.640;23.372;2023-04-15T10:10:45;4.90;;;2.03;;
69369;SDS011;56530;42.640;23.372;2023-04-15T10:13:18;2.78;;;1.90;;
69369;SDS011;56530;42.640;23.372;2023-04-15T10:15:47;2.30;;;1.63;;
69369;SDS011;56530;42.640;23.372;2023-04-15T10:18:25;1.85;;;1.67;;
69369;SDS011;56530;42.640;23.372;2023-04-15T10:20:51;3.83;;;1.52;;
69369;SDS011;56530;42.640;23.372;2023-04-15T10:23:18;4.60;;;1.63;;
69369;SDS011;56530;42.640;23.372;2023-04-15T10:25:48;3.75;;;1.40;;
69369;SDS011;56530;42.640;23.372;2023-04-15T10:28:14;2.70;;;1.50;;
69369;SDS011;56530;42.640;23.372;2023-04-15T10:30:41;2.10;;;1.33;;
69369;SDS011;56530;42.640;23.372;2023-04-15T10:33:07;2.28;;;1.60;;
69369;SDS011;56530;42.640;23.372;2023-04-15T10:35:33;3.10;;;1.58;;
69369;SDS011;56530;42.640;23.372;2023-04-15T10:37:59;1.65;;;1.40;;
69369;SDS011;56530;42.640;23.372;2023-04-15T10:40:25;1.75;;;1.35;;
69369;SDS011;56530;42.640;23.372;2023-04-15T10:42:56;4.75;;;1.10;;
69369;SDS011;56530;42.640;23.372;2023-04-15T10:45:26;2.88;;;1.85;;
69369;SDS011;56530;42.640;23.372;2023-04-15T10:47:57;4.88;;;1.58;;
69369;SDS011;56530;42.640;23.372;2023-04-15T10:50:26;1.73;;;1.52;;
69369;SDS011;56530;42.640;23.372;2023-04-15T10:52:54;2.28;;;1.30;;
69369;SDS011;56530;42.640;23.372;2023-04-15T10:55:21;3.20;;;1.50;;
69369;SDS011;56530;42.640;23.372;2023-04-15T10:57:52;3.45;;;1.55;;
69369;SDS011;56530;42.640;23.372;2023-04-15T11:00:18;3.22;;;1.58;;
69369;SDS011;56530;42.640;23.372;2023-04-15T11:02:58;3.92;;;1.58;;
69369;SDS011;56530;42.640;23.372;2023-04-15T11:08:05;2.67;;;1.50;;
69369;SDS011;56530;42.640;23.372;2023-04-15T11:13:05;4.32;;;1.50;;
69369;SDS011;56530;42.640;23.372;2023-04-15T11:15:41;1.55;;;1.35;;
69369;SDS011;56530;42.640;23.372;2023-04-15T11:20:48;2.45;;;2.22;;
69369;SDS011;56530;42.640;23.372;2023-04-15T11:23:16;1.75;;;1.65;;
69369;SDS011;56530;42.640;23.372;2023-04-15T11:25:53;7.68;;;1.63;;
69369;SDS011;56530;42.640;23.372;2023-04-15T11:28:20;3.38;;;1.50;;
69369;SDS011;56530;42.640;23.372;2023-04-15T11:30:50;1.75;;;1.33;;
69369;SDS011;56530;42.640;23.372;2023-04-15T11:33:15;4.78;;;1.30;;
69369;SDS011;56530;42.640;23.372;2023-04-15T11:35:41;2.63;;;1.30;;
69369;SDS011;56530;42.640;23.372;2023-04-15T11:38:08;1.90;;;1.20;;
69369;SDS011;56530;42.640;23.372;2023-04-15T11:40:41;3.42;;;1.60;;
69369;SDS011;56530;42.640;23.372;2023-04-15T11:43:11;3.92;;;1.45;;
69369;SDS011;56530;42.640;23.372;2023-04-15T11:45:47;2.00;;;1.63;;
69369;SDS011;56530;42.640;23.372;2023-04-15T11:48:13;4.43;;;1.60;;
69369;SDS011;56530;42.640;23.372;2023-04-15T11:50:39;1.50;;;1.40;;
69369;SDS011;56530;42.640;23.372;2023-04-15T11:53:05;3.92;;;1.08;;
69369;SDS011;56530;42.640;23.372;2023-04-15T11:55:42;1.80;;;1.25;;
69369;SDS011;56530;42.640;23.372;2023-04-15T11:58:17;3.53;;;1.40;;
69369;SDS011;56530;42.640;23.372;2023-04-15T12:00:51;2.05;;;1.40;;
69369;SDS011;56530;42.640;23.372;2023-04-15T12:16:49;3.78;;;2.03;;
69369;SDS011;56530;42.640;23.372;2023-04-15T12:19:37;1.30;;;1.20;;
69369;SDS011;56530;42.640;23.372;2023-04-15T12:22:13;6.65;;;1.20;;
69369;SDS011;56530;42.640;23.372;2023-04-15T12:24:40;4.95;;;1.50;;
69369;SDS011;56530;42.640;23.372;2023-04-15T12:27:13;2.45;;;1.48;;
69369;SDS011;56530;42.640;23.372;2023-04-15T12:29:40;4.63;;;1.27;;
69369;SDS011;56530;42.640;23.372;2023-04-15T12:32:10;5.25;;;1.45;;
69369;SDS011;56530;42.640;23.372;2023-04-15T12:34:40;1.42;;;0.95;;
69369;SDS011;56530;42.640;23.372;2023-04-15T12:37:07;5.13;;;1.38;;
69369;SDS011;56530;42.640;23.372;2023-04-15T12:39:34;2.05;;;1.13;;
69369;SDS011;56530;42.640;23.372;2023-04-15T12:42:01;2.17;;;1.27;;
69369;SDS011;56530;42.640;23.372;2023-04-15T12:44:28;2.05;;;1.02;;
69369;SDS011;56530;42.640;23.372;2023-04-15T12:46:54;1.55;;;1.10;;
69369;SDS011;56530;42.640;23.372;2023-04-15T12:49:20;1.02;;;1.00;;
69369;SDS011;56530;42.640;23.372;2023-04-15T12:51:47;5.05;;;1.25;;
69369;SDS011;56530;42.640;23.372;2023-04-15T12:54:13;3.17;;;1.20;;
69369;SDS011;56530;42.640;23.372;2023-04-15T12:56:38;2.10;;;1.10;;
69369;SDS011;56530;42.640;23.372;2023-04-15T12:59:04;1.42;;;1.20;;
69369;SDS011;56530;42.640;23.372;2023-04-15T13:01:29;1.40;;;1.30;;
69369;SDS011;56530;42.640;23.372;2023-04-15T13:03:55;0.90;;;0.90;;
69369;SDS011;56530;42.640;23.372;2023-04-15T13:06:20;1.15;;;1.05;;
69369;SDS011;56530;42.640;23.372;2023-04-15T13:08:46;1.35;;;1.27;;
69369;SDS011;56530;42.640;23.372;2023-04-15T13:11:11;4.00;;;1.20;;
69369;SDS011;56530;42.640;23.372;2023-04-15T13:13:36;2.80;;;1.33;;
69369;SDS011;56530;42.640;23.372;2023-04-15T13:16:02;2.10;;;0.98;;
69369;SDS011;56530;42.640;23.372;2023-04-15T13:18:27;1.48;;;1.30;;
69369;SDS011;56530;42.640;23.372;2023-04-15T13:20:55;5.00;;;1.13;;
69369;SDS011;56530;42.640;23.372;2023-04-15T13:23:20;1.45;;;1.35;;
69369;SDS011;56530;42.640;23.372;2023-04-15T13:25:45;2.70;;;1.55;;
69369;SDS011;56530;42.640;23.372;2023-04-15T13:28:11;1.38;;;1.10;;
69369;SDS011;56530;42.640;23.372;2023-04-15T13:30:37;0.70;;;0.70;;
69369;SDS011;56530;42.640;23.372;2023-04-15T13:33:03;1.85;;;0.90;;
69369;SDS011;56530;42.640;23.372;2023-04-15T13:35:29;1.85;;;1.27;;
69369;SDS011;56530;42.640;23.372;2023-04-15T13:37:55;3.08;;;1.10;;
69369;SDS011;56530;42.640;23.372;2023-04-15T13:40:20;3.67;;;1.40;;
69369;SDS011;56530;42.640;23.372;2023-04-15T13:42:47;3.30;;;1.10;;
69369;SDS011;56530;42.640;23.372;2023-04-15T13:45:12;1.73;;;1.30;;
69369;SDS011;56530;42.640;23.372;2023-04-15T13:47:38;2.08;;;1.15;;
69369;SDS011;56530;42.640;23.372;2023-04-15T13:50:04;1.15;;;1.13;;
69369;SDS011;56530;42.640;23.372;2023-04-15T13:52:30;3.05;;;1.42;;
69369;SDS011;56530;42.640;23.372;2023-04-15T13:54:56;2.92;;;1.35;;
69369;SDS011;56530;42.640;23.372;2023-04-15T13:57:21;1.40;;;1.30;;
69369;SDS011;56530;42.640;23.372;2023-04-15T13:59:47;1.77;;;1.23;;
69369;SDS011;56530;42.640;23.372;2023-04-15T14:02:12;1.15;;;1.00;;
69369;SDS011;56530;42.640;23.372;2023-04-15T14:07:03;2.75;;;1.10;;
69369;SDS011;56530;42.640;23.372;2023-04-15T14:09:28;0.80;;;0.80;;
69369;SDS011;56530;42.640;23.372;2023-04-15T14:11:54;1.33;;;1.02;;
69369;SDS011;56530;42.640;23.372;2023-04-15T14:14:20;0.85;;;0.80;;
69369;SDS011;56530;42.640;23.372;2023-04-15T14:16:45;1.38;;;0.90;;
69369;SDS011;56530;42.640;23.372;2023-04-15T14:19:11;2.08;;;1.05;;
69369;SDS011;56530;42.640;23.372;2023-04-15T14:21:37;1.33;;;1.00;;
69369;SDS011;56530;42.640;23.372;2023-04-15T14:24:02;3.28;;;1.13;;
69369;SDS011;56530;42.640;23.372;2023-04-15T14:26:28;1.48;;;1.10;;
69369;SDS011;56530;42.640;23.372;2023-04-15T14:28:53;2.97;;;0.93;;
69369;SDS011;56530;42.640;23.372;2023-04-15T14:31:19;3.25;;;1.45;;
69369;SDS011;56530;42.640;23.372;2023-04-15T14:33:44;1.52;;;0.93;;
69369;SDS011;56530;42.640;23.372;2023-04-15T14:36:10;1.92;;;1.52;;
69369;SDS011;56530;42.640;23.372;2023-04-15T14:38:35;3.35;;;1.08;;
69369;SDS011;56530;42.640;23.372;2023-04-15T14:41:07;2.45;;;0.88;;
69369;SDS011;56530;42.640;23.372;2023-04-15T14:43:33;1.85;;;1.15;;
69369;SDS011;56530;42.640;23.372;2023-04-15T14:45:59;2.70;;;2.20;;
69369;SDS011;56530;42.640;23.372;2023-04-15T14:48:24;0.70;;;0.70;;
69369;SDS011;56530;42.640;23.372;2023-04-15T14:50:50;3.45;;;1.20;;
69369;SDS011;56530;42.640;23.372;2023-04-15T14:53:16;4.85;;;1.00;;
69369;SDS011;56530;42.640;23.372;2023-04-15T14:55:41;1.20;;;1.10;;